createdAt,value
2023-03-29T00:01:57.059Z,3.45
2023-03-29T00:04:27.824Z,5.63
2023-03-29T00:06:55.792Z,3.03
2023-03-29T00:09:26.589Z,4.78
2023-03-29T00:11:54.485Z,3.92
2023-03-29T00:14:22.377Z,4.18
2023-03-29T00:16:52.019Z,3.08
2023-03-29T00:19:20.063Z,4.63
2023-03-29T00:21:47.974Z,4.13
2023-03-29T00:24:16.043Z,3.97
2023-03-29T00:26:43.983Z,4.57
2023-03-29T00:29:11.896Z,5.28
2023-03-29T00:31:40.045Z,3.92
2023-03-29T00:34:09.327Z,5.05
2023-03-29T00:36:37.239Z,3.50
2023-03-29T00:39:05.194Z,3.22
2023-03-29T00:41:33.109Z,5.57
2023-03-29T00:44:02.040Z,4.57
2023-03-29T00:46:30.974Z,3.60
2023-03-29T00:49:01.931Z,5.63
2023-03-29T00:51:32.060Z,4.47
2023-03-29T00:54:00.768Z,4.10
2023-03-29T00:56:29.872Z,2.95
2023-03-29T00:58:59.199Z,4.28
2023-03-29T01:01:30.343Z,2.75
2023-03-29T01:04:00.850Z,3.00
2023-03-29T01:06:29.243Z,5.80
2023-03-29T01:08:59.443Z,4.13
2023-03-29T01:11:28.742Z,3.65
2023-03-29T01:13:59.218Z,4.47
2023-03-29T01:16:28.611Z,5.30
2023-03-29T01:18:58.297Z,4.28
2023-03-29T01:21:29.299Z,3.15
2023-03-29T01:24:18.834Z,4.07
2023-03-29T01:26:55.165Z,4.60
2023-03-29T01:29:26.116Z,5.20
2023-03-29T01:31:56.123Z,3.55
2023-03-29T01:34:27.235Z,4.03
2023-03-29T01:36:58.825Z,3.72
2023-03-29T01:39:26.832Z,2.97
2023-03-29T01:42:01.022Z,3.58
2023-03-29T01:44:31.958Z,3.78
2023-03-29T01:47:03.786Z,3.60
2023-03-29T01:49:34.531Z,3.38
2023-03-29T01:52:04.490Z,3.95
2023-03-29T01:54:33.508Z,3.83
2023-03-29T01:57:03.433Z,4.05
2023-03-29T01:59:34.323Z,3.15
2023-03-29T02:02:04.915Z,3.40
2023-03-29T02:04:34.943Z,3.92
2023-03-29T02:07:03.633Z,4.18
2023-03-29T02:09:31.973Z,4.30
2023-03-29T02:12:00.765Z,2.67
2023-03-29T02:14:29.434Z,5.93
2023-03-29T02:17:10.071Z,2.78
2023-03-29T02:19:39.215Z,2.92
2023-03-29T02:22:08.300Z,3.83
2023-03-29T02:24:36.540Z,4.50
2023-03-29T02:27:05.125Z,4.68
2023-03-29T02:29:33.043Z,4.43
2023-03-29T02:32:06.165Z,3.03
2023-03-29T02:34:37.681Z,3.72
2023-03-29T02:37:10.278Z,3.45
2023-03-29T02:39:38.305Z,3.40
2023-03-29T02:42:06.514Z,3.30
2023-03-29T02:44:36.399Z,3.13
2023-03-29T02:47:08.872Z,3.92
2023-03-29T02:49:36.817Z,3.45
2023-03-29T02:52:07.700Z,3.63
2023-03-29T02:54:37.825Z,4.05
2023-03-29T02:57:06.604Z,4.93
2023-03-29T02:59:34.660Z,3.90
2023-03-29T03:02:03.138Z,3.47
2023-03-29T03:04:34.082Z,3.88
2023-03-29T03:07:02.560Z,2.78
2023-03-29T03:09:30.830Z,3.85
2023-03-29T03:11:58.896Z,3.45
2023-03-29T03:14:28.164Z,3.22
2023-03-29T03:16:57.821Z,5.22
2023-03-29T03:19:25.938Z,4.53
2023-03-29T03:21:55.986Z,4.10
2023-03-29T03:24:23.938Z,3.30
2023-03-29T03:26:51.809Z,3.97
2023-03-29T03:29:20.375Z,3.55
2023-03-29T03:32:00.056Z,3.80
2023-03-29T03:34:46.583Z,3.88
2023-03-29T03:37:15.999Z,3.67
2023-03-29T03:39:44.364Z,2.50
2023-03-29T03:42:12.453Z,3.20
2023-03-29T03:44:44.822Z,3.22
2023-03-29T03:47:29.346Z,3.97
2023-03-29T03:49:59.749Z,2.97
2023-03-29T03:52:29.032Z,3.30
2023-03-29T03:54:56.969Z,3.10
2023-03-29T03:57:47.918Z,4.03
2023-03-29T04:00:21.242Z,3.50
2023-03-29T04:03:02.511Z,4.45
2023-03-29T04:05:30.736Z,2.67
2023-03-29T04:08:00.142Z,5.43
2023-03-29T04:10:58.361Z,4.03
2023-03-29T04:13:31.594Z,3.35
2023-03-29T04:16:19.067Z,4.68
2023-03-29T04:18:47.039Z,3.40
2023-03-29T04:21:14.952Z,4.07
2023-03-29T04:23:46.549Z,3.72
2023-03-29T04:26:14.788Z,4.32
2023-03-29T04:28:51.904Z,2.88
2023-03-29T04:31:36.570Z,3.42
2023-03-29T04:34:26.107Z,3.80
2023-03-29T04:36:56.386Z,3.33
2023-03-29T04:39:32.098Z,3.47
2023-03-29T04:42:02.837Z,3.30
2023-03-29T04:44:33.574Z,3.08
2023-03-29T04:47:04.304Z,4.10
2023-03-29T04:49:43.989Z,5.25
2023-03-29T04:52:19.946Z,3.17
2023-03-29T04:54:50.638Z,4.72
2023-03-29T04:57:24.233Z,3.15
2023-03-29T05:00:16.714Z,3.50
2023-03-29T05:03:14.573Z,3.92
2023-03-29T05:05:54.692Z,3.28
2023-03-29T05:08:22.723Z,3.40
2023-03-29T05:11:21.324Z,4.60
2023-03-29T05:13:49.274Z,6.28
2023-03-29T05:16:17.548Z,5.05
2023-03-29T05:18:46.000Z,3.30
2023-03-29T05:21:13.997Z,3.00
2023-03-29T05:23:44.843Z,4.68
2023-03-29T05:26:20.225Z,3.55
2023-03-29T05:28:51.811Z,4.95
2023-03-29T05:31:19.909Z,7.82
2023-03-29T05:33:51.908Z,7.25
2023-03-29T05:36:20.243Z,6.63
2023-03-29T05:38:50.671Z,6.88
2023-03-29T05:41:22.765Z,7.95
2023-03-29T05:43:53.402Z,41.17
2023-03-29T05:46:24.769Z,36.10
2023-03-29T05:48:55.099Z,53.03
2023-03-29T05:51:33.298Z,53.08
2023-03-29T05:54:01.359Z,65.13
2023-03-29T05:56:30.662Z,70.80
2023-03-29T05:58:58.576Z,73.05
2023-03-29T06:01:26.558Z,74.82
2023-03-29T06:04:00.927Z,60.33
2023-03-29T06:06:49.943Z,52.00
2023-03-29T06:09:19.075Z,58.22
2023-03-29T06:11:57.493Z,53.72
2023-03-29T06:14:32.663Z,60.35
2023-03-29T06:17:11.317Z,63.75
2023-03-29T06:19:39.408Z,69.20
2023-03-29T06:22:07.795Z,48.97
2023-03-29T06:24:35.954Z,47.80
2023-03-29T06:27:11.756Z,43.95
2023-03-29T06:29:39.697Z,46.55
2023-03-29T06:32:07.846Z,47.40
2023-03-29T06:34:59.156Z,47.28
2023-03-29T06:37:33.032Z,40.25
2023-03-29T06:40:13.477Z,41.47
2023-03-29T06:42:47.113Z,38.30
2023-03-29T06:45:32.870Z,35.97
2023-03-29T06:48:04.300Z,39.45
2023-03-29T06:50:32.650Z,31.17
2023-03-29T06:53:09.169Z,36.10
2023-03-29T06:55:37.073Z,38.60
2023-03-29T06:58:34.385Z,29.05
2023-03-29T07:01:09.321Z,26.95
2023-03-29T07:03:51.520Z,26.20
2023-03-29T07:06:25.018Z,27.20
2023-03-29T07:08:53.556Z,26.02
2023-03-29T07:11:35.293Z,23.20
2023-03-29T07:14:17.702Z,23.33
2023-03-29T07:16:47.256Z,22.35
2023-03-29T07:22:13.548Z,24.17
2023-03-29T07:24:49.365Z,28.67
2023-03-29T07:27:18.115Z,23.90
2023-03-29T07:29:51.423Z,20.38
2023-03-29T07:35:30.728Z,18.00
2023-03-29T07:37:59.689Z,20.13
2023-03-29T07:40:28.331Z,19.65
2023-03-29T07:42:58.916Z,19.35
2023-03-29T07:45:31.008Z,21.55
2023-03-29T07:48:02.153Z,17.75
2023-03-29T07:50:45.618Z,18.17
2023-03-29T07:53:13.892Z,19.98
2023-03-29T07:55:47.347Z,51.63
2023-03-29T07:58:38.460Z,80.13
2023-03-29T08:01:10.458Z,72.90
2023-03-29T08:03:58.644Z,79.35
2023-03-29T08:06:46.706Z,62.35
2023-03-29T08:09:14.712Z,74.40
2023-03-29T08:11:45.252Z,59.20
2023-03-29T08:14:28.658Z,64.13
2023-03-29T08:17:14.296Z,53.03
2023-03-29T08:19:50.983Z,44.10
2023-03-29T08:22:23.263Z,48.38
2023-03-29T08:25:24.436Z,45.97
2023-03-29T08:27:54.568Z,42.42
2023-03-29T08:30:33.902Z,34.70
2023-03-29T08:33:05.029Z,41.53
2023-03-29T08:35:33.193Z,41.08
2023-03-29T08:38:12.575Z,37.83
2023-03-29T08:40:41.344Z,31.38
2023-03-29T08:43:36.181Z,27.90
2023-03-29T08:46:34.532Z,35.92
2023-03-29T08:49:15.991Z,26.13
2023-03-29T08:51:45.397Z,28.90
2023-03-29T08:54:15.199Z,30.30
2023-03-29T08:57:08.456Z,28.98
2023-03-29T08:59:39.514Z,26.35
2023-03-29T09:02:15.952Z,26.75
2023-03-29T09:04:45.279Z,23.35
2023-03-29T09:07:31.962Z,24.77
2023-03-29T09:10:00.365Z,19.77
2023-03-29T09:12:41.540Z,27.35
2023-03-29T09:15:15.340Z,24.77
2023-03-29T09:17:56.845Z,19.33
2023-03-29T09:20:33.519Z,23.25
2023-03-29T09:23:11.957Z,26.65
2023-03-29T09:26:02.103Z,18.67
2023-03-29T09:28:47.810Z,18.95
2023-03-29T09:31:17.282Z,19.50
2023-03-29T09:33:47.725Z,19.27
2023-03-29T09:36:22.640Z,15.27
2023-03-29T09:38:54.271Z,19.38
2023-03-29T09:41:26.688Z,16.42
2023-03-29T09:43:55.581Z,17.48
2023-03-29T09:46:29.141Z,18.05
2023-03-29T09:48:57.620Z,15.18
2023-03-29T09:51:28.141Z,17.48
2023-03-29T09:53:56.997Z,17.65
2023-03-29T09:56:43.934Z,12.70
2023-03-29T09:59:15.978Z,14.35
2023-03-29T10:01:45.277Z,12.48
2023-03-29T10:04:14.784Z,16.33
2023-03-29T10:06:50.508Z,16.38
2023-03-29T10:09:20.849Z,10.93
2023-03-29T10:11:52.690Z,13.15
2023-03-29T10:14:22.385Z,16.27
2023-03-29T10:16:56.144Z,10.43
2023-03-29T10:19:25.254Z,11.65
2023-03-29T10:21:55.132Z,14.25
2023-03-29T10:24:23.629Z,11.43
2023-03-29T10:26:55.431Z,11.40
2023-03-29T10:29:23.720Z,14.50
2023-03-29T10:31:51.664Z,10.02
2023-03-29T10:34:19.603Z,13.70
2023-03-29T10:36:51.215Z,12.77
2023-03-29T10:39:20.562Z,13.32
2023-03-29T10:41:51.194Z,12.43
2023-03-29T10:44:28.960Z,9.57
2023-03-29T10:46:57.820Z,13.07
2023-03-29T10:49:26.045Z,8.25
2023-03-29T10:51:53.918Z,8.50
2023-03-29T10:54:24.684Z,11.73
2023-03-29T10:56:54.976Z,10.45
2023-03-29T10:59:28.701Z,9.70
2023-03-29T11:02:19.329Z,11.07
2023-03-29T11:04:48.901Z,7.90
2023-03-29T11:07:32.091Z,10.43
2023-03-29T11:10:05.942Z,7.30
2023-03-29T11:12:38.184Z,7.65
2023-03-29T11:15:15.611Z,8.75
2023-03-29T11:17:51.831Z,7.95
2023-03-29T11:20:22.492Z,8.30
2023-03-29T11:22:53.407Z,9.68
2023-03-29T11:25:29.126Z,9.95
2023-03-29T11:28:00.429Z,7.57
2023-03-29T11:30:31.276Z,6.95
2023-03-29T11:33:04.391Z,6.10
2023-03-29T11:35:43.366Z,8.13
2023-03-29T11:38:17.477Z,7.57
2023-03-29T11:40:51.599Z,6.72
2023-03-29T11:43:21.367Z,7.15
2023-03-29T11:45:52.414Z,6.30
2023-03-29T11:48:22.282Z,10.15
2023-03-29T11:50:52.737Z,7.30
2023-03-29T11:53:22.987Z,7.88
2023-03-29T11:55:52.290Z,5.55
2023-03-29T11:58:22.293Z,8.73
2023-03-29T12:00:51.722Z,11.27
2023-03-29T12:03:22.671Z,8.88
2023-03-29T12:05:51.625Z,8.30
2023-03-29T12:08:21.261Z,10.05
2023-03-29T12:10:50.902Z,12.70
2023-03-29T12:13:22.556Z,10.77
2023-03-29T12:15:52.422Z,11.18
2023-03-29T12:18:22.451Z,15.48
2023-03-29T12:20:52.673Z,15.45
2023-03-29T12:23:20.676Z,13.82
2023-03-29T12:25:53.480Z,13.75
2023-03-29T12:28:29.600Z,22.95
2023-03-29T12:31:02.437Z,18.65
2023-03-29T12:33:58.849Z,13.70
2023-03-29T12:37:17.601Z,16.27
2023-03-29T12:40:12.989Z,18.88
2023-03-29T12:43:02.225Z,18.30
2023-03-29T12:45:52.997Z,20.80
2023-03-29T12:48:22.302Z,18.65
2023-03-29T12:50:51.301Z,15.88
2023-03-29T12:53:22.427Z,16.88
2023-03-29T12:55:54.760Z,18.88
2023-03-29T12:58:28.894Z,19.95
2023-03-29T13:01:07.434Z,20.60
2023-03-29T13:03:43.521Z,17.05
2023-03-29T13:06:13.152Z,18.38
2023-03-29T13:08:42.301Z,18.38
2023-03-29T13:11:12.636Z,17.27
2023-03-29T13:13:41.238Z,20.30
2023-03-29T13:16:15.630Z,20.52
2023-03-29T13:18:51.886Z,19.90
2023-03-29T13:21:22.844Z,27.40
2023-03-29T13:23:55.677Z,16.48
2023-03-29T13:26:38.385Z,18.00
2023-03-29T13:29:20.030Z,17.73
2023-03-29T13:31:52.477Z,16.77
2023-03-29T13:34:27.863Z,17.55
2023-03-29T13:37:00.012Z,18.35
2023-03-29T13:39:30.302Z,15.45
2023-03-29T13:42:08.143Z,19.95
2023-03-29T13:44:44.340Z,19.30
2023-03-29T13:47:29.612Z,17.42
2023-03-29T13:49:58.838Z,21.98
2023-03-29T13:52:28.679Z,16.00
2023-03-29T13:54:58.453Z,22.02
2023-03-29T13:57:31.708Z,18.25
2023-03-29T14:00:01.418Z,18.27
2023-03-29T14:02:34.139Z,15.55
2023-03-29T14:05:04.188Z,17.98
2023-03-29T14:07:32.203Z,22.88
2023-03-29T14:10:01.233Z,14.63
2023-03-29T14:12:32.053Z,20.35
2023-03-29T14:15:01.979Z,16.20
2023-03-29T14:17:30.225Z,19.00
2023-03-29T14:20:00.501Z,15.98
2023-03-29T14:22:31.271Z,15.18
2023-03-29T14:25:02.836Z,16.25
2023-03-29T14:27:31.758Z,14.15
2023-03-29T14:29:59.810Z,16.60
2023-03-29T14:32:31.820Z,14.38
2023-03-29T14:35:01.899Z,16.27
2023-03-29T14:37:29.932Z,17.85
2023-03-29T14:39:58.184Z,16.27
2023-03-29T14:42:27.785Z,14.68
2023-03-29T14:44:58.757Z,16.80
2023-03-29T14:47:28.351Z,14.60
2023-03-29T14:49:58.797Z,14.88
2023-03-29T14:52:28.134Z,14.10
2023-03-29T14:54:57.055Z,15.68
2023-03-29T14:57:26.391Z,14.75
2023-03-29T14:59:58.045Z,21.85
2023-03-29T15:02:28.406Z,14.75
2023-03-29T15:05:00.145Z,16.40
2023-03-29T15:07:29.792Z,16.95
2023-03-29T15:09:57.940Z,15.02
2023-03-29T15:12:26.006Z,14.77
2023-03-29T15:14:53.901Z,13.80
2023-03-29T15:17:43.062Z,12.85
2023-03-29T15:20:21.371Z,13.52
2023-03-29T15:22:59.488Z,10.65
2023-03-29T15:25:28.161Z,11.77
2023-03-29T15:27:58.942Z,10.95
2023-03-29T15:30:34.445Z,13.15
2023-03-29T15:33:20.314Z,13.23
2023-03-29T15:35:51.271Z,16.13
2023-03-29T15:38:23.410Z,10.60
2023-03-29T15:40:55.554Z,10.80
2023-03-29T15:43:23.626Z,12.55
2023-03-29T15:45:51.736Z,11.25
2023-03-29T15:48:21.517Z,15.10
2023-03-29T15:50:49.422Z,12.77
2023-03-29T15:53:18.765Z,13.63
2023-03-29T15:55:49.892Z,13.18
2023-03-29T15:58:19.135Z,10.45
2023-03-29T16:00:50.408Z,11.15
2023-03-29T16:03:18.579Z,11.25
2023-03-29T16:05:46.814Z,9.68
2023-03-29T16:08:14.759Z,10.65
2023-03-29T16:10:43.750Z,10.20
2023-03-29T16:13:14.544Z,8.88
2023-03-29T16:15:43.269Z,10.48
2023-03-29T16:18:11.278Z,9.13
2023-03-29T16:20:39.364Z,9.43
2023-03-29T16:23:09.341Z,8.23
2023-03-29T16:25:39.712Z,9.48
2023-03-29T16:28:09.266Z,9.32
2023-03-29T16:30:38.806Z,11.27
2023-03-29T16:33:08.595Z,9.82
2023-03-29T16:35:38.058Z,8.75
2023-03-29T16:38:06.484Z,8.55
2023-03-29T16:40:34.704Z,10.90
2023-03-29T16:43:02.831Z,7.05
2023-03-29T16:45:30.935Z,9.93
2023-03-29T16:48:00.325Z,10.30
2023-03-29T16:50:28.530Z,5.78
2023-03-29T16:52:56.497Z,9.98
2023-03-29T16:55:24.655Z,10.48
2023-03-29T16:57:53.137Z,10.30
2023-03-29T17:00:21.916Z,9.57
2023-03-29T17:02:50.609Z,7.53
2023-03-29T17:05:20.120Z,9.18
2023-03-29T17:07:48.230Z,9.95
2023-03-29T17:10:16.552Z,6.93
2023-03-29T17:12:45.144Z,8.88
2023-03-29T17:15:13.329Z,9.10
2023-03-29T17:17:41.268Z,9.07
2023-03-29T17:20:11.965Z,7.65
2023-03-29T17:22:42.011Z,9.48
2023-03-29T17:25:10.266Z,7.68
2023-03-29T17:27:38.411Z,11.77
2023-03-29T17:30:07.298Z,8.82
2023-03-29T17:32:35.593Z,8.85
2023-03-29T17:35:03.922Z,7.07
2023-03-29T17:37:31.803Z,8.02
2023-03-29T17:40:01.132Z,6.25
2023-03-29T17:42:29.091Z,7.40
2023-03-29T17:44:56.998Z,9.80
2023-03-29T17:47:24.937Z,11.90
2023-03-29T17:49:52.851Z,12.05
2023-03-29T17:52:20.938Z,9.45
2023-03-29T17:54:48.879Z,12.48
2023-03-29T17:57:18.186Z,9.82
2023-03-29T17:59:46.162Z,9.63
2023-03-29T18:02:16.959Z,11.10
2023-03-29T18:04:44.967Z,12.95
2023-03-29T18:07:12.950Z,12.43
2023-03-29T18:09:41.007Z,8.52
2023-03-29T18:12:08.903Z,8.20
2023-03-29T18:14:38.370Z,14.40
2023-03-29T18:17:06.382Z,13.75
2023-03-29T18:19:34.332Z,10.52
2023-03-29T18:22:02.339Z,10.40
2023-03-29T18:24:30.608Z,11.20
2023-03-29T18:26:58.595Z,10.68
2023-03-29T18:29:26.699Z,10.73
2023-03-29T18:31:56.001Z,13.60
2023-03-29T18:34:23.961Z,11.48
2023-03-29T18:36:53.635Z,11.05
2023-03-29T18:39:21.961Z,11.60
2023-03-29T18:41:49.921Z,12.00
2023-03-29T18:44:17.872Z,8.85
2023-03-29T18:46:45.852Z,12.88
2023-03-29T18:49:15.242Z,13.98
2023-03-29T18:51:44.074Z,8.27
2023-03-29T18:54:12.060Z,12.50
2023-03-29T18:56:39.975Z,8.23
2023-03-29T18:59:07.959Z,8.13
2023-03-29T19:01:36.359Z,9.48
2023-03-29T19:04:04.330Z,8.55
2023-03-29T19:06:33.629Z,8.70
2023-03-29T19:09:04.353Z,10.57
2023-03-29T19:11:33.224Z,8.38
2023-03-29T19:14:01.253Z,9.45
2023-03-29T19:16:29.295Z,10.90
2023-03-29T19:18:57.402Z,8.85
2023-03-29T19:21:25.337Z,7.85
2023-03-29T19:23:54.646Z,10.65
2023-03-29T19:26:23.331Z,10.07
2023-03-29T19:28:51.481Z,12.07
2023-03-29T19:31:19.710Z,8.48
2023-03-29T19:33:47.765Z,10.23
2023-03-29T19:36:15.711Z,11.07
2023-03-29T19:38:43.657Z,10.90
2023-03-29T19:41:13.030Z,10.52
2023-03-29T19:43:40.934Z,10.35
2023-03-29T19:46:10.841Z,14.43
2023-03-29T19:48:38.995Z,12.43
2023-03-29T19:51:06.967Z,9.95
2023-03-29T19:53:38.169Z,10.43
2023-03-29T19:56:07.594Z,9.32
2023-03-29T19:58:37.483Z,9.32
2023-03-29T20:01:06.045Z,13.15
2023-03-29T20:03:34.443Z,12.65
2023-03-29T20:06:02.658Z,9.55
2023-03-29T20:08:30.578Z,13.15
2023-03-29T20:10:59.539Z,15.15
2023-03-29T20:13:37.655Z,9.13
2023-03-29T20:16:08.752Z,18.83
2023-03-29T20:18:38.281Z,8.82
2023-03-29T20:21:06.451Z,10.30
2023-03-29T20:23:34.609Z,15.15
2023-03-29T20:26:03.162Z,11.52
2023-03-29T20:28:31.433Z,11.57
2023-03-29T20:31:03.806Z,18.60
2023-03-29T20:33:33.227Z,12.75
2023-03-29T20:36:01.341Z,14.07
2023-03-29T20:38:29.371Z,14.05
2023-03-29T20:40:57.486Z,9.90
2023-03-29T20:43:25.515Z,11.45
2023-03-29T20:45:54.431Z,11.70
2023-03-29T20:48:24.281Z,10.98
2023-03-29T20:50:54.209Z,11.77
2023-03-29T20:53:22.198Z,13.98
2023-03-29T20:55:50.188Z,11.65
2023-03-29T20:58:18.129Z,12.70
2023-03-29T21:00:46.741Z,11.57
2023-03-29T21:03:14.850Z,9.95
2023-03-29T21:05:43.390Z,9.35
2023-03-29T21:08:13.054Z,9.30
2023-03-29T21:10:42.410Z,10.02
2023-03-29T21:13:10.748Z,11.38
2023-03-29T21:15:40.629Z,10.25
2023-03-29T21:18:08.997Z,18.52
2023-03-29T21:20:38.601Z,8.93
2023-03-29T21:23:06.663Z,10.43
2023-03-29T21:25:35.950Z,9.95
2023-03-29T21:28:03.916Z,8.60
2023-03-29T21:30:32.293Z,12.02
2023-03-29T21:33:00.442Z,9.25
2023-03-29T21:35:28.478Z,12.57
2023-03-29T21:37:56.386Z,10.23
2023-03-29T21:40:24.405Z,8.60
2023-03-29T21:42:53.733Z,9.88
2023-03-29T21:45:21.774Z,9.20
2023-03-29T21:47:49.766Z,9.35
2023-03-29T21:50:17.950Z,10.20
2023-03-29T21:52:45.957Z,10.50
2023-03-29T21:55:19.607Z,8.77
2023-03-29T21:57:48.193Z,9.55
2023-03-29T22:00:18.712Z,9.93
2023-03-29T22:02:46.707Z,9.43
2023-03-29T22:05:14.878Z,8.15
2023-03-29T22:07:42.810Z,7.88
2023-03-29T22:10:12.258Z,12.27
2023-03-29T22:12:52.054Z,8.93
2023-03-29T22:15:21.598Z,10.20
2023-03-29T22:17:50.611Z,10.48
2023-03-29T22:20:18.857Z,8.93
2023-03-29T22:22:49.664Z,11.07
2023-03-29T22:25:17.920Z,8.55
2023-03-29T22:27:46.054Z,8.57
2023-03-29T22:30:14.361Z,8.65
2023-03-29T22:32:43.835Z,9.27
2023-03-29T22:35:11.834Z,10.00
2023-03-29T22:37:42.834Z,10.13
2023-03-29T22:40:12.217Z,9.48
2023-03-29T22:42:40.189Z,7.88
2023-03-29T22:45:09.328Z,7.97
2023-03-29T22:47:37.237Z,8.60
2023-03-29T22:50:07.828Z,9.57
2023-03-29T22:52:35.985Z,8.18
2023-03-29T22:55:03.898Z,8.65
2023-03-29T22:57:31.763Z,8.40
2023-03-29T22:59:59.668Z,8.07
2023-03-29T23:02:27.638Z,8.70
2023-03-29T23:04:55.621Z,8.27
2023-03-29T23:07:24.937Z,7.43
2023-03-29T23:09:52.829Z,10.02
2023-03-29T23:12:21.083Z,9.43
2023-03-29T23:14:49.013Z,8.77
2023-03-29T23:17:19.323Z,8.70
2023-03-29T23:19:47.915Z,8.52
2023-03-29T23:22:15.926Z,9.52
2023-03-29T23:24:47.252Z,8.88
2023-03-29T23:27:15.398Z,8.63
2023-03-29T23:29:45.203Z,9.02
2023-03-29T23:32:14.088Z,10.02
2023-03-29T23:34:42.079Z,7.95
2023-03-29T23:37:09.972Z,8.50
2023-03-29T23:39:37.872Z,8.27
2023-03-29T23:42:07.345Z,8.25
2023-03-29T23:44:35.264Z,8.85
2023-03-29T23:47:03.260Z,10.30
2023-03-29T23:49:31.831Z,10.45
2023-03-29T23:52:00.219Z,8.82
2023-03-29T23:54:28.988Z,8.73
2023-03-29T23:56:56.898Z,7.35
2023-03-29T23:59:29.810Z,8.30
